Time;durP1;ratioP1;P1;durP2;ratioP2;P2;SDS_P1;SDS_P2;PMS_P1;PMS_P2;Temp;Humidity;BMP_temperature;BMP_pressure;BME280_temperature;BME280_humidity;BME280_pressure;Samples;Min_cycle;Max_cycle;Signal;HPM_P1;HPM_P2
2022/04/12 00:01:03;;;;;;;25.25;12.15;;;3.70;99.90;;;;;;5039150;28;20588;-85
2022/04/12 00:03:30;;;;;;;27.38;12.82;;;3.70;99.90;;;;;;5055026;28;20033;-86
2022/04/12 00:05:56;;;;;;;24.30;12.48;;;3.80;99.90;;;;;;5036005;28;20518;-85
2022/04/12 00:08:22;;;;;;;28.98;13.05;;;3.80;99.90;;;;;;5031767;28;20021;-85
2022/04/12 00:10:48;;;;;;;23.33;11.05;;;3.70;99.90;;;;;;5032004;28;20043;-86
2022/04/12 00:13:14;;;;;;;22.25;12.05;;;3.80;99.90;;;;;;5058653;28;20025;-85
2022/04/12 00:15:40;;;;;;;22.98;13.07;;;3.80;99.90;;;;;;5052052;28;20032;-86
2022/04/12 00:20:53;;;;;;;22.48;11.82;;;3.70;99.90;;;;;;5036848;28;20085;-85
2022/04/12 00:23:19;;;;;;;26.55;13.30;;;3.80;99.90;;;;;;5035792;28;20033;-85
2022/04/12 00:25:44;;;;;;;24.30;11.52;;;3.80;99.90;;;;;;5034279;28;20021;-86
2022/04/12 00:28:15;;;;;;;21.80;11.70;;;3.70;99.90;;;;;;5027299;28;20033;-85
2022/04/12 00:30:42;;;;;;;22.67;11.25;;;3.60;99.90;;;;;;5039758;28;20098;-87
2022/04/12 00:33:08;;;;;;;23.95;12.77;;;3.70;99.90;;;;;;5043134;28;20439;-87
2022/04/12 00:35:34;;;;;;;26.52;13.68;;;3.70;99.90;;;;;;5033847;28;20095;-87
2022/04/12 00:38:00;;;;;;;23.05;13.82;;;3.70;99.90;;;;;;5037197;28;20071;-85
2022/04/12 00:40:26;;;;;;;24.13;13.07;;;3.70;99.90;;;;;;5037483;28;20033;-87
2022/04/12 00:42:53;;;;;;;22.67;11.60;;;3.60;99.90;;;;;;5035145;28;20017;-85
2022/04/12 00:45:19;;;;;;;43.00;11.95;;;3.60;99.90;;;;;;5034205;28;20087;-85
2022/04/12 00:47:45;;;;;;;23.20;12.05;;;3.60;99.90;;;;;;5025177;28;20017;-86
2022/04/12 00:50:13;;;;;;;19.67;12.40;;;3.50;99.90;;;;;;5038825;28;20037;-86
2022/04/12 00:52:41;;;;;;;23.05;12.15;;;3.50;99.90;;;;;;5026275;28;20029;-86
2022/04/12 00:55:07;;;;;;;20.27;11.52;;;3.50;99.90;;;;;;5035867;28;20500;-85
2022/04/12 00:57:34;;;;;;;31.50;12.10;;;3.50;99.90;;;;;;5041349;28;20052;-86
2022/04/12 01:00:00;;;;;;;26.48;12.07;;;3.50;99.90;;;;;;5032620;28;20175;-84
2022/04/12 01:02:27;;;;;;;24.38;12.02;;;3.50;99.90;;;;;;5029888;28;20094;-85
2022/04/12 01:04:52;;;;;;;21.63;11.18;;;3.30;99.90;;;;;;5034063;28;20090;-84
2022/04/12 01:07:19;;;;;;;22.17;12.48;;;3.20;99.90;;;;;;5034566;28;20045;-84
2022/04/12 01:09:45;;;;;;;23.05;12.25;;;3.10;99.90;;;;;;5024044;28;20468;-85
2022/04/12 01:12:11;;;;;;;21.15;13.10;;;3.20;99.90;;;;;;5041801;28;20029;-85
2022/04/12 01:14:37;;;;;;;21.25;11.35;;;3.20;99.90;;;;;;5052717;28;20381;-85
2022/04/12 01:17:07;;;;;;;25.08;12.73;;;3.20;99.90;;;;;;5020391;28;20068;-85
2022/04/12 01:19:34;;;;;;;21.17;11.57;;;3.20;99.90;;;;;;5028367;28;20040;-84
2022/04/12 01:22:05;;;;;;;21.20;11.57;;;3.10;99.90;;;;;;5032935;28;20029;-85
2022/04/12 01:24:32;;;;;;;25.60;12.77;;;3.10;99.90;;;;;;5032768;28;20028;-84
2022/04/12 01:26:59;;;;;;;24.63;11.85;;;3.00;99.90;;;;;;5035924;28;20033;-86
2022/04/12 01:29:26;;;;;;;25.48;11.05;;;3.00;99.90;;;;;;5040770;28;20025;-86
2022/04/12 01:31:51;;;;;;;27.33;12.90;;;3.00;99.90;;;;;;5039670;28;20033;-84
2022/04/12 01:34:17;;;;;;;25.77;12.57;;;3.00;99.90;;;;;;5032973;28;20040;-83
2022/04/12 01:36:43;;;;;;;24.45;12.07;;;3.00;99.90;;;;;;5032694;28;20033;-83
2022/04/12 01:39:09;;;;;;;25.20;13.73;;;2.90;99.90;;;;;;5033727;28;20083;-87
2022/04/12 01:41:35;;;;;;;17.77;11.10;;;2.90;99.90;;;;;;5031903;28;20668;-86
2022/04/12 01:44:00;;;;;;;23.98;12.02;;;2.80;99.90;;;;;;5029680;28;20033;-85
2022/04/12 01:46:27;;;;;;;23.65;12.02;;;2.70;99.90;;;;;;5031427;28;20052;-85
2022/04/12 01:48:52;;;;;;;20.67;11.90;;;2.70;99.90;;;;;;5056362;28;20028;-87
2022/04/12 01:51:18;;;;;;;24.10;13.80;;;2.70;99.90;;;;;;5036270;28;20031;-85
2022/04/12 01:53:44;;;;;;;19.38;11.00;;;2.70;99.90;;;;;;5037568;28;20029;-84
2022/04/12 01:56:10;;;;;;;23.95;13.85;;;2.60;99.90;;;;;;5029308;28;20026;-84
2022/04/12 01:58:36;;;;;;;20.20;12.05;;;2.60;99.90;;;;;;5032792;28;20043;-85
2022/04/12 02:01:03;;;;;;;26.70;13.93;;;2.60;99.90;;;;;;5034198;28;20044;-84
2022/04/12 02:03:29;;;;;;;23.02;10.98;;;2.50;99.90;;;;;;5029984;28;20113;-84
2022/04/12 02:05:57;;;;;;;26.95;13.68;;;2.50;99.90;;;;;;5018507;28;20451;-84
2022/04/12 02:08:23;;;;;;;23.00;13.20;;;2.50;99.90;;;;;;5036556;28;20120;-84
2022/04/12 02:10:49;;;;;;;22.90;13.23;;;2.50;99.90;;;;;;5035566;28;20049;-87
2022/04/12 02:13:16;;;;;;;29.75;15.40;;;2.50;99.90;;;;;;5020648;28;20029;-86
2022/04/12 02:15:42;;;;;;;27.80;15.48;;;2.50;99.90;;;;;;5034554;28;20496;-85
2022/04/12 02:18:08;;;;;;;30.80;15.68;;;2.40;99.90;;;;;;5035072;28;20051;-86
2022/04/12 02:20:33;;;;;;;26.05;14.93;;;2.50;99.90;;;;;;5022348;28;20037;-85
2022/04/12 02:22:59;;;;;;;34.25;14.13;;;2.50;99.90;;;;;;5021396;28;20439;-87
2022/04/12 02:25:25;;;;;;;30.65;15.32;;;2.40;99.90;;;;;;5045858;28;20052;-84
2022/04/12 02:27:50;;;;;;;25.55;15.10;;;2.40;99.90;;;;;;5041139;28;20098;-86
2022/04/12 02:30:16;;;;;;;26.13;14.23;;;2.40;99.90;;;;;;5013944;28;20120;-86
2022/04/12 02:32:42;;;;;;;25.40;13.63;;;2.30;99.90;;;;;;5017175;28;20041;-85
2022/04/12 02:35:08;;;;;;;23.65;13.63;;;2.20;99.90;;;;;;5019265;28;20037;-86
2022/04/12 02:37:34;;;;;;;31.25;16.08;;;2.20;99.90;;;;;;5026815;28;20099;-87
2022/04/12 02:40:00;;;;;;;28.15;16.30;;;2.10;99.90;;;;;;5030494;28;20439;-84
2022/04/12 02:42:26;;;;;;;29.05;15.60;;;2.10;99.90;;;;;;5020745;28;20133;-85
2022/04/12 02:44:51;;;;;;;30.45;15.13;;;2.10;99.90;;;;;;5036546;28;20034;-85
2022/04/12 02:47:17;;;;;;;26.88;14.07;;;2.10;99.90;;;;;;5026881;28;20560;-87
2022/04/12 02:49:42;;;;;;;26.15;15.88;;;2.00;99.90;;;;;;5042474;28;20432;-85
2022/04/12 02:52:08;;;;;;;26.15;15.27;;;1.90;99.90;;;;;;5037481;28;20468;-85
2022/04/12 02:54:35;;;;;;;34.28;16.67;;;1.80;99.90;;;;;;5037311;28;20033;-85
2022/04/12 02:57:01;;;;;;;33.00;17.10;;;1.70;99.90;;;;;;5021744;28;20034;-85
2022/04/12 02:59:27;;;;;;;26.33;14.63;;;1.70;99.90;;;;;;5021493;28;20054;-85
2022/04/12 03:01:52;;;;;;;29.00;13.35;;;1.60;99.90;;;;;;5021032;28;20075;-87
2022/04/12 03:04:18;;;;;;;24.33;14.48;;;1.60;99.90;;;;;;5034028;28;20476;-86
2022/04/12 03:06:44;;;;;;;32.72;16.17;;;1.60;99.90;;;;;;5034859;28;20460;-86
2022/04/12 03:09:10;;;;;;;30.15;16.27;;;1.70;99.90;;;;;;5036670;28;20459;-87
2022/04/12 03:11:39;;;;;;;27.25;13.25;;;1.70;99.90;;;;;;5035605;28;20551;-85
2022/04/12 03:14:04;;;;;;;28.65;15.73;;;1.60;99.90;;;;;;5016582;28;20033;-86
2022/04/12 03:16:30;;;;;;;32.55;15.02;;;1.60;99.90;;;;;;5033293;28;20033;-86
2022/04/12 03:18:55;;;;;;;28.83;15.32;;;1.60;99.90;;;;;;5028321;28;20105;-85
2022/04/12 03:21:21;;;;;;;27.73;14.88;;;1.50;99.90;;;;;;5024441;28;20041;-86
2022/04/12 03:23:47;;;;;;;24.83;13.65;;;1.50;99.90;;;;;;5032867;28;20099;-88
2022/04/12 03:26:12;;;;;;;26.35;14.88;;;1.40;99.90;;;;;;5015267;28;20094;-85
2022/04/12 03:28:38;;;;;;;30.25;15.57;;;1.40;99.90;;;;;;5037421;28;20033;-85
2022/04/12 03:31:04;;;;;;;26.10;12.88;;;1.30;99.90;;;;;;5029666;28;20037;-85
2022/04/12 03:33:29;;;;;;;28.67;15.85;;;1.30;99.90;;;;;;5030611;28;20133;-85
2022/04/12 03:35:55;;;;;;;26.08;15.77;;;1.30;99.90;;;;;;5033200;28;20038;-87
2022/04/12 03:38:21;;;;;;;31.02;15.32;;;1.30;99.90;;;;;;5047158;28;20723;-86
2022/04/12 03:40:47;;;;;;;31.70;16.38;;;1.30;99.90;;;;;;5051761;28;20100;-87
2022/04/12 03:43:12;;;;;;;27.75;14.15;;;1.30;99.90;;;;;;5035138;28;20057;-85
2022/04/12 03:45:38;;;;;;;35.00;16.40;;;1.30;99.90;;;;;;5039086;28;20136;-88
2022/04/12 03:48:06;;;;;;;32.45;17.05;;;1.40;99.90;;;;;;5043337;28;20093;-86
2022/04/12 03:50:34;;;;;;;33.60;17.08;;;1.20;99.90;;;;;;5037883;28;20116;-86
2022/04/12 03:53:01;;;;;;;34.03;16.10;;;1.20;99.90;;;;;;5037518;28;20028;-86
2022/04/12 03:55:30;;;;;;;35.20;17.08;;;1.20;99.90;;;;;;5035022;28;20052;-86
2022/04/12 03:58:04;;;;;;;30.35;16.17;;;1.30;99.90;;;;;;5034829;28;20035;-86
2022/04/12 04:00:30;;;;;;;29.17;16.00;;;1.40;99.90;;;;;;5036018;28;20041;-87
2022/04/12 04:02:56;;;;;;;31.50;15.80;;;1.40;99.90;;;;;;5046915;28;20549;-86
2022/04/12 04:05:23;;;;;;;34.10;17.75;;;1.40;99.90;;;;;;5036591;28;20052;-87
2022/04/12 04:07:49;;;;;;;33.97;17.25;;;1.30;99.90;;;;;;5041086;28;20040;-89
2022/04/12 04:10:14;;;;;;;28.08;16.17;;;1.30;99.90;;;;;;5035396;28;20037;-84
2022/04/12 04:12:40;;;;;;;28.65;16.27;;;1.30;99.90;;;;;;5036865;28;20021;-85
2022/04/12 04:15:11;;;;;;;33.92;16.48;;;1.30;99.90;;;;;;5034223;28;20077;-85
2022/04/12 04:17:40;;;;;;;34.53;16.40;;;1.30;99.90;;;;;;5029857;28;20029;-85
2022/04/12 04:20:06;;;;;;;35.58;17.52;;;1.30;99.90;;;;;;5042707;28;20041;-86
2022/04/12 04:22:32;;;;;;;41.08;19.90;;;1.20;99.90;;;;;;5043118;28;20037;-87
2022/04/12 04:24:57;;;;;;;29.80;16.85;;;1.30;99.90;;;;;;5035316;28;20025;-85
2022/04/12 04:27:28;;;;;;;35.75;18.55;;;1.20;99.90;;;;;;5034713;28;20034;-85
2022/04/12 04:29:55;;;;;;;28.33;17.23;;;1.20;99.90;;;;;;5027099;28;20038;-85
2022/04/12 04:32:22;;;;;;;34.65;17.15;;;1.20;99.90;;;;;;5033879;28;20124;-83
2022/04/12 04:34:48;;;;;;;31.95;18.40;;;1.20;99.90;;;;;;5030512;28;20033;-85
2022/04/12 04:37:13;;;;;;;31.20;17.33;;;1.20;99.90;;;;;;5031674;28;20476;-84
2022/04/12 04:39:39;;;;;;;34.75;18.02;;;1.20;99.90;;;;;;5045778;28;20037;-84
2022/04/12 04:42:05;;;;;;;31.95;16.63;;;1.20;99.90;;;;;;5021898;28;20037;-86
2022/04/12 04:44:31;;;;;;;36.05;17.80;;;1.20;99.90;;;;;;5034556;28;20037;-88
2022/04/12 04:46:57;;;;;;;32.20;17.88;;;1.20;99.90;;;;;;5029108;28;20052;-85
2022/04/12 04:49:23;;;;;;;35.38;17.05;;;1.40;99.90;;;;;;5027640;28;20559;-87
2022/04/12 04:51:49;;;;;;;36.40;18.35;;;1.40;99.90;;;;;;5036410;28;20022;-86
2022/04/12 04:54:15;;;;;;;29.35;16.83;;;1.30;99.90;;;;;;5033102;28;20425;-86
2022/04/12 04:56:41;;;;;;;33.25;16.75;;;1.30;99.90;;;;;;5027879;28;20033;-85
2022/04/12 04:59:07;;;;;;;34.40;18.02;;;1.30;99.90;;;;;;5042899;28;20049;-85
2022/04/12 05:01:34;;;;;;;35.60;18.20;;;1.40;99.90;;;;;;5028676;28;20481;-86
2022/04/12 05:03:59;;;;;;;36.38;16.67;;;1.40;99.90;;;;;;5036168;28;20036;-86
2022/04/12 05:06:25;;;;;;;31.50;17.58;;;1.50;99.90;;;;;;5037265;28;20409;-87
2022/04/12 05:08:51;;;;;;;37.92;18.60;;;1.60;99.90;;;;;;5036750;28;20037;-86
2022/04/12 05:11:16;;;;;;;29.88;18.20;;;1.70;99.90;;;;;;5028907;28;20092;-84
2022/04/12 05:13:42;;;;;;;32.00;17.83;;;1.70;99.90;;;;;;5040196;28;20071;-88
2022/04/12 05:16:07;;;;;;;30.90;16.65;;;1.80;99.90;;;;;;5028952;28;20021;-85
2022/04/12 05:18:34;;;;;;;31.58;17.77;;;1.90;99.90;;;;;;5034403;28;20037;-84
2022/04/12 05:21:00;;;;;;;31.50;17.17;;;2.00;99.90;;;;;;5037925;28;20029;-88
2022/04/12 05:23:26;;;;;;;31.80;17.17;;;2.00;99.90;;;;;;5021805;28;20049;-83
2022/04/12 05:25:53;;;;;;;39.70;19.30;;;2.10;99.90;;;;;;5034128;28;20033;-85
2022/04/12 05:28:20;;;;;;;34.50;19.13;;;2.00;99.90;;;;;;5026174;28;20029;-84
2022/04/12 05:30:46;;;;;;;36.67;18.58;;;2.10;99.90;;;;;;5029872;28;20041;-83
2022/04/12 05:33:12;;;;;;;34.75;17.23;;;2.20;99.90;;;;;;5027911;28;20055;-84
2022/04/12 05:35:38;;;;;;;34.47;18.92;;;2.30;99.90;;;;;;5011648;28;20061;-83
2022/04/12 05:38:06;;;;;;;35.63;18.83;;;2.40;99.90;;;;;;5036573;28;20047;-88
2022/04/12 05:40:32;;;;;;;35.30;18.60;;;2.50;99.90;;;;;;5028134;28;20028;-82
2022/04/12 05:42:57;;;;;;;38.78;19.27;;;2.60;99.90;;;;;;5053475;28;20025;-89
2022/04/12 05:45:23;;;;;;;37.58;19.60;;;2.70;99.90;;;;;;5034504;28;20094;-85
2022/04/12 05:47:51;;;;;;;34.33;17.80;;;2.70;99.90;;;;;;5019462;28;20025;-82
2022/04/12 05:50:19;;;;;;;32.90;19.15;;;2.70;99.90;;;;;;5031575;28;20033;-85
2022/04/12 05:52:44;;;;;;;36.00;17.17;;;2.80;99.90;;;;;;5031484;28;20029;-83
2022/04/12 05:55:15;;;;;;;34.60;18.98;;;2.90;99.90;;;;;;5035420;28;20036;-82
2022/04/12 05:57:47;;;;;;;30.52;15.40;;;3.00;99.90;;;;;;5015469;28;20029;-85
2022/04/12 06:00:14;;;;;;;37.88;17.95;;;3.10;99.90;;;;;;5033981;28;20090;-85
2022/04/12 06:02:39;;;;;;;32.17;17.00;;;3.10;99.90;;;;;;5015495;28;20489;-84
2022/04/12 06:05:05;;;;;;;37.13;20.20;;;3.30;99.90;;;;;;5029658;28;20029;-89
2022/04/12 06:07:32;;;;;;;42.83;20.83;;;3.30;99.90;;;;;;5034108;28;20506;-82
2022/04/12 06:10:00;;;;;;;37.67;18.27;;;3.40;99.90;;;;;;5034171;28;20060;-84
2022/04/12 06:12:26;;;;;;;34.63;20.10;;;3.50;99.90;;;;;;5026111;28;20025;-84
2022/04/12 06:14:51;;;;;;;35.22;20.55;;;3.60;99.90;;;;;;5033161;28;20063;-84
2022/04/12 06:17:17;;;;;;;38.08;18.90;;;3.60;99.90;;;;;;5021278;28;20029;-84
2022/04/12 06:19:43;;;;;;;33.88;18.23;;;3.60;99.90;;;;;;5036036;28;20048;-84
2022/04/12 06:22:09;;;;;;;35.10;18.35;;;3.70;99.90;;;;;;5024976;28;20033;-85
2022/04/12 06:24:34;;;;;;;42.03;19.88;;;3.90;99.90;;;;;;5015119;28;20028;-85
2022/04/12 06:27:00;;;;;;;43.60;18.95;;;4.10;99.90;;;;;;5035021;28;20033;-84
2022/04/12 06:29:27;;;;;;;38.40;18.83;;;4.10;99.90;;;;;;5036760;28;20044;-83
2022/04/12 06:31:52;;;;;;;32.65;17.45;;;4.00;99.90;;;;;;5032757;28;20496;-85
2022/04/12 06:34:18;;;;;;;44.10;21.17;;;4.00;99.90;;;;;;5033515;28;20041;-88
2022/04/12 06:36:43;;;;;;;38.63;21.48;;;4.00;99.90;;;;;;5012765;28;20072;-84
2022/04/12 06:39:10;;;;;;;37.90;20.25;;;4.20;99.90;;;;;;5054800;28;20496;-84
2022/04/12 06:41:36;;;;;;;42.03;19.58;;;4.20;99.90;;;;;;5032219;28;20048;-86
2022/04/12 06:44:01;;;;;;;32.33;19.15;;;4.20;99.90;;;;;;5032918;28;20416;-86
2022/04/12 06:46:27;;;;;;;37.55;21.42;;;4.30;99.90;;;;;;5037752;28;20502;-84
2022/04/12 06:48:53;;;;;;;38.45;22.27;;;4.60;99.90;;;;;;5032227;28;20060;-83
2022/04/12 06:51:19;;;;;;;34.55;20.20;;;4.70;99.90;;;;;;5032591;28;20033;-83
2022/04/12 06:53:45;;;;;;;35.45;18.60;;;4.90;99.90;;;;;;5035779;28;20052;-82
2022/04/12 06:56:10;;;;;;;35.25;18.30;;;5.10;99.90;;;;;;5026350;28;20140;-84
2022/04/12 06:58:36;;;;;;;36.95;20.27;;;5.30;99.90;;;;;;5034974;28;20052;-86
2022/04/12 07:01:02;;;;;;;35.60;18.77;;;5.40;99.90;;;;;;5053016;28;20052;-83
2022/04/12 07:03:27;;;;;;;38.47;18.60;;;5.50;99.90;;;;;;5058521;28;20052;-83
2022/04/12 07:05:55;;;;;;;35.67;20.13;;;5.50;99.90;;;;;;5039356;28;20053;-84
2022/04/12 07:08:23;;;;;;;34.28;18.88;;;5.50;99.90;;;;;;5034393;28;20033;-83
2022/04/12 07:10:49;;;;;;;38.90;17.92;;;5.80;99.90;;;;;;5029242;28;20040;-84
2022/04/12 07:13:16;;;;;;;34.22;17.83;;;5.90;99.90;;;;;;5043239;28;20041;-83
2022/04/12 07:15:43;;;;;;;37.45;20.75;;;6.10;99.90;;;;;;5037546;28;20108;-82
2022/04/12 07:18:10;;;;;;;30.65;16.70;;;6.30;99.90;;;;;;5040461;28;20021;-80
2022/04/12 07:20:35;;;;;;;32.78;20.13;;;6.50;99.90;;;;;;5035669;28;20041;-82
2022/04/12 07:23:01;;;;;;;35.05;19.05;;;6.70;99.90;;;;;;5036547;28;20448;-83
2022/04/12 07:25:27;;;;;;;35.15;17.58;;;6.90;99.90;;;;;;5033310;28;20116;-82
2022/04/12 07:27:53;;;;;;;35.15;18.92;;;6.80;99.90;;;;;;5034897;28;20103;-81
2022/04/12 07:30:18;;;;;;;32.47;19.77;;;6.90;99.90;;;;;;5033223;28;20538;-81
2022/04/12 07:32:44;;;;;;;32.45;17.42;;;7.20;99.90;;;;;;5039164;28;20471;-81
2022/04/12 07:35:10;;;;;;;36.10;18.23;;;7.30;99.90;;;;;;5033595;28;20421;-81
2022/04/12 07:37:35;;;;;;;27.25;15.13;;;7.60;99.90;;;;;;5039336;28;20063;-81
2022/04/12 07:40:02;;;;;;;29.40;15.93;;;7.80;99.90;;;;;;5035443;28;20180;-82
2022/04/12 07:42:28;;;;;;;23.98;13.82;;;7.70;99.30;;;;;;5015613;28;20033;-82
2022/04/12 07:44:54;;;;;;;38.70;17.63;;;8.00;97.90;;;;;;5032454;28;20082;-81
2022/04/12 07:47:19;;;;;;;25.15;15.90;;;8.30;98.00;;;;;;5013064;28;20036;-81
2022/04/12 07:49:45;;;;;;;30.48;15.27;;;8.40;96.50;;;;;;5029457;28;20025;-79
2022/04/12 07:52:11;;;;;;;33.40;17.48;;;8.70;96.50;;;;;;5036801;28;20455;-80
2022/04/12 07:54:36;;;;;;;25.58;13.75;;;9.10;96.00;;;;;;5037360;28;20028;-79
2022/04/12 07:57:02;;;;;;;23.90;14.43;;;9.20;92.40;;;;;;5039421;28;20536;-79
2022/04/12 07:59:28;;;;;;;23.15;14.55;;;9.30;94.20;;;;;;5039634;28;20053;-87
2022/04/12 08:01:53;;;;;;;23.80;13.90;;;9.40;92.70;;;;;;5016420;28;20404;-83
2022/04/12 08:04:19;;;;;;;27.52;15.05;;;9.60;91.60;;;;;;5034913;28;20078;-82
2022/04/12 08:06:45;;;;;;;27.15;16.38;;;9.70;90.80;;;;;;5032727;28;20477;-81
2022/04/12 08:09:11;;;;;;;21.65;13.25;;;9.70;91.60;;;;;;5032491;28;20037;-81
2022/04/12 08:11:37;;;;;;;29.58;15.68;;;9.70;91.00;;;;;;5035747;28;20037;-85
2022/04/12 08:14:03;;;;;;;32.85;16.63;;;9.90;92.10;;;;;;5026385;28;20029;-81
2022/04/12 08:16:28;;;;;;;33.53;18.63;;;10.20;92.10;;;;;;5037841;28;20090;-82
2022/04/12 08:18:55;;;;;;;35.20;18.85;;;9.60;92.70;;;;;;5034686;28;20112;-81
2022/04/12 08:21:38;;;;;;;32.47;18.30;;;9.70;93.90;;;;;;5030307;28;20033;-81
2022/04/12 08:24:04;;;;;;;34.90;20.85;;;10.00;94.90;;;;;;5029720;28;20052;-81
2022/04/12 08:26:30;;;;;;;32.55;18.13;;;9.90;94.20;;;;;;5029360;28;20083;-81
2022/04/12 08:28:57;;;;;;;32.97;17.73;;;10.30;93.60;;;;;;5036893;28;20112;-89
2022/04/12 08:31:23;;;;;;;29.92;17.30;;;10.30;92.10;;;;;;5041477;28;20044;-85
2022/04/12 08:33:49;;;;;;;34.05;16.85;;;10.40;93.00;;;;;;5036981;28;20033;-84
2022/04/12 08:36:16;;;;;;;30.50;17.55;;;10.50;91.70;;;;;;5028452;28;20029;-83
2022/04/12 08:38:43;;;;;;;31.85;16.88;;;11.00;91.90;;;;;;5026849;28;20400;-83
2022/04/12 08:41:10;;;;;;;30.60;17.98;;;11.10;91.40;;;;;;5031576;28;20496;-80
2022/04/12 08:43:39;;;;;;;50.08;18.35;;;11.40;90.00;;;;;;5035506;28;20063;-81
2022/04/12 08:46:06;;;;;;;30.45;16.33;;;11.40;90.50;;;;;;5028069;28;20101;-82
2022/04/12 08:48:33;;;;;;;29.95;17.35;;;11.10;89.90;;;;;;5027459;28;20040;-81
2022/04/12 08:50:59;;;;;;;34.15;17.75;;;11.20;90.60;;;;;;5033211;28;20026;-81
2022/04/12 08:53:26;;;;;;;34.45;19.55;;;11.10;88.30;;;;;;5035282;28;20104;-82
2022/04/12 08:55:51;;;;;;;32.17;16.27;;;11.10;90.70;;;;;;5049596;28;20034;-82
2022/04/12 08:58:17;;;;;;;26.77;16.48;;;11.60;89.20;;;;;;5036543;28;20567;-81
2022/04/12 09:00:43;;;;;;;24.52;14.70;;;12.00;84.60;;;;;;5028935;28;20041;-80
2022/04/12 09:03:16;;;;;;;24.90;14.63;;;12.30;78.80;;;;;;5033302;28;20114;-82
2022/04/12 09:05:42;;;;;;;27.13;14.90;;;12.40;76.10;;;;;;5033187;28;20022;-81
2022/04/12 09:08:28;;;;;;;24.52;14.05;;;12.30;74.40;;;;;;5015441;28;20029;-81
2022/04/12 09:10:58;;;;;;;25.75;15.48;;;12.40;76.00;;;;;;5036500;28;20049;-80
2022/04/12 09:13:24;;;;;;;26.60;15.80;;;12.80;74.30;;;;;;5039315;28;20708;-80
2022/04/12 09:15:50;;;;;;;26.42;15.63;;;13.20;73.00;;;;;;5036146;28;20044;-84
2022/04/12 09:18:50;;;;;;;31.30;15.90;;;13.40;71.90;;;;;;5033935;28;20033;-81
2022/04/12 09:21:21;;;;;;;28.45;16.35;;;13.40;70.00;;;;;;5034698;28;20055;-81
2022/04/12 09:23:59;;;;;;;23.27;15.02;;;13.50;70.40;;;;;;5025733;28;20041;-81
2022/04/12 09:26:30;;;;;;;26.45;15.35;;;13.80;68.10;;;;;;5033321;28;20047;-80
2022/04/12 09:28:56;;;;;;;;;;;13.90;69.10;;;;;;5036357;28;20484;-80
2022/04/12 09:31:23;;;;;;;25.58;15.73;;;13.60;68.40;;;;;;5035427;28;19970;-83
2022/04/12 09:33:50;;;;;;;27.20;16.38;;;13.60;69.00;;;;;;5033886;28;20025;-79
2022/04/12 09:36:16;;;;;;;30.90;16.83;;;13.60;69.80;;;;;;5033286;28;20567;-81
2022/04/12 09:38:44;;;;;;;31.17;15.82;;;13.70;69.20;;;;;;5032057;28;20025;-80
2022/04/12 09:41:23;;;;;;;28.10;17.17;;;13.90;68.50;;;;;;5033497;28;20021;-82
2022/04/12 09:44:07;;;;;;;25.67;16.58;;;14.20;68.40;;;;;;5023463;28;20029;-84
2022/04/12 09:46:36;;;;;;;29.90;16.92;;;14.00;68.30;;;;;;5048933;28;20091;-82
2022/04/12 09:49:02;;;;;;;28.42;16.92;;;13.80;70.40;;;;;;5029815;28;20067;-82
2022/04/12 09:51:28;;;;;;;26.70;16.23;;;14.20;67.70;;;;;;5039280;28;20052;-82
2022/04/12 09:53:54;;;;;;;25.73;16.45;;;14.50;66.80;;;;;;5032082;28;20704;-81
2022/04/12 09:56:24;;;;;;;28.70;17.15;;;14.70;67.80;;;;;;5033935;28;20041;-82
2022/04/12 09:58:54;;;;;;;34.33;18.50;;;14.60;65.20;;;;;;5036942;28;20080;-81
2022/04/12 10:01:21;;;;;;;26.30;16.02;;;14.90;65.90;;;;;;5029326;28;20039;-81
2022/04/12 10:03:56;;;;;;;26.85;15.77;;;15.30;64.30;;;;;;5028397;28;20020;-81
2022/04/12 10:06:27;;;;;;;24.00;15.38;;;15.60;62.80;;;;;;5041134;28;20037;-82
2022/04/12 10:08:56;;;;;;;25.42;13.52;;;15.80;63.10;;;;;;5033249;28;20071;-81
2022/04/12 10:11:23;;;;;;;22.35;13.63;;;16.00;59.40;;;;;;5038851;28;20064;-80
2022/04/12 10:13:50;;;;;;;25.50;15.18;;;16.10;60.80;;;;;;5030996;28;20029;-79
2022/04/12 10:16:18;;;;;;;33.60;16.98;;;16.20;60.40;;;;;;5028596;28;20030;-82
2022/04/12 10:18:46;;;;;;;24.67;15.73;;;16.10;61.70;;;;;;5026122;28;20026;-80
2022/04/12 10:21:12;;;;;;;28.40;18.50;;;16.40;60.80;;;;;;5026046;28;20029;-82
2022/04/12 10:23:45;;;;;;;25.83;16.27;;;16.40;60.50;;;;;;5029055;28;20888;-81
2022/04/12 10:26:11;;;;;;;26.17;18.42;;;16.30;61.20;;;;;;5033165;28;20051;-81
2022/04/12 10:28:38;;;;;;;24.67;17.45;;;16.30;60.90;;;;;;5033551;28;20361;-81
2022/04/12 10:31:19;;;;;;;25.00;16.17;;;16.40;60.70;;;;;;5037349;28;20111;-82
2022/04/12 10:34:04;;;;;;;26.83;16.02;;;16.80;60.90;;;;;;5025522;28;20033;-81
2022/04/12 10:36:55;;;;;;;24.75;15.73;;;17.20;59.10;;;;;;5028267;28;20038;-82
2022/04/12 10:39:32;;;;;;;23.65;16.23;;;17.70;58.40;;;;;;5047014;28;20018;-80
2022/04/12 10:42:04;;;;;;;23.20;15.77;;;17.70;55.50;;;;;;5034834;28;20025;-80
2022/04/12 10:44:42;;;;;;;22.08;15.02;;;18.00;56.60;;;;;;5031908;28;20084;-80
2022/04/12 10:47:27;;;;;;;27.85;15.65;;;18.10;55.30;;;;;;5030909;28;20072;-80
2022/04/12 10:49:54;;;;;;;23.27;14.93;;;17.90;55.90;;;;;;5034933;28;20075;-81
2022/04/12 10:52:48;;;;;;;22.38;14.93;;;17.60;55.50;;;;;;5036256;28;20046;-80
2022/04/12 10:55:23;;;;;;;23.92;15.88;;;17.90;55.50;;;;;;5034850;28;20024;-79
2022/04/12 10:57:51;;;;;;;21.25;14.15;;;18.50;53.40;;;;;;5032944;28;20040;-79
2022/04/12 11:00:23;;;;;;;22.17;14.88;;;18.40;54.40;;;;;;5031886;28;20065;-78
2022/04/12 11:02:54;;;;;;;28.45;15.23;;;18.80;51.30;;;;;;5036846;28;20155;-77
2022/04/12 11:05:42;;;;;;;27.48;16.02;;;19.20;50.40;;;;;;5035209;28;20033;-79
2022/04/12 11:08:33;;;;;;;22.85;14.10;;;19.90;48.60;;;;;;5032383;28;20029;-80
2022/04/12 11:10:59;;;;;;;17.60;12.95;;;20.60;45.90;;;;;;5028339;28;20068;-81
2022/04/12 11:13:28;;;;;;;19.13;12.73;;;21.20;46.90;;;;;;5035305;28;20099;-78
2022/04/12 11:16:01;;;;;;;16.57;12.53;;;20.90;45.90;;;;;;5029490;28;20480;-80
2022/04/12 11:18:46;;;;;;;21.23;12.18;;;21.20;44.70;;;;;;5032841;28;20350;-81
2022/04/12 11:21:12;;;;;;;19.58;12.88;;;21.60;43.00;;;;;;5030887;28;20060;-80
2022/04/12 11:23:48;;;;;;;20.88;14.88;;;21.60;43.30;;;;;;5036603;28;20100;-80
2022/04/12 11:26:50;;;;;;;15.13;11.50;;;22.00;41.90;;;;;;5035629;28;20120;-85
2022/04/12 11:29:23;;;;;;;16.33;12.93;;;21.50;42.30;;;;;;5041740;28;20034;-83
2022/04/12 11:31:56;;;;;;;13.95;10.85;;;21.10;43.60;;;;;;5029753;28;20029;-81
2022/04/12 11:34:24;;;;;;;15.38;10.50;;;22.50;39.60;;;;;;5035052;28;20531;-80
2022/04/12 11:37:10;;;;;;;18.20;11.98;;;22.60;38.60;;;;;;5024471;28;20029;-81
2022/04/12 11:39:40;;;;;;;18.63;10.98;;;22.30;39.80;;;;;;5027831;28;20523;-80
2022/04/12 11:42:08;;;;;;;14.80;10.57;;;23.10;37.70;;;;;;5036021;28;20048;-81
2022/04/12 11:44:34;;;;;;;12.82;10.00;;;24.00;37.80;;;;;;5039071;28;20040;-80
2022/04/12 11:47:08;;;;;;;11.98;10.20;;;24.80;34.10;;;;;;5028489;28;20400;-82
2022/04/12 11:49:39;;;;;;;15.27;11.10;;;24.50;35.10;;;;;;5027377;28;20030;-84
2022/04/12 11:52:12;;;;;;;15.32;10.73;;;24.00;37.20;;;;;;5029236;28;20048;-83
2022/04/12 11:54:43;;;;;;;13.52;10.02;;;24.20;35.80;;;;;;5027608;28;20108;-81
2022/04/12 11:57:15;;;;;;;14.48;10.85;;;24.80;34.10;;;;;;5029327;28;20261;-82
2022/04/12 11:59:44;;;;;;;16.10;10.43;;;25.00;33.40;;;;;;4981254;28;1192170;-81
2022/04/12 12:02:11;;;;;;;13.10;8.15;;;25.00;34.10;;;;;;5036228;28;20221;-81
2022/04/12 12:04:43;;;;;;;9.43;7.45;;;24.80;32.50;;;;;;5035132;28;20512;-81
2022/04/12 12:07:09;;;;;;;8.75;6.13;;;25.50;32.50;;;;;;5033637;28;20032;-80
2022/04/12 12:09:35;;;;;;;8.35;5.53;;;25.00;31.70;;;;;;5035849;28;20032;-80
2022/04/12 12:12:06;;;;;;;8.30;6.03;;;24.80;31.60;;;;;;5031571;28;20026;-83
2022/04/12 12:14:32;;;;;;;8.50;5.60;;;24.80;33.20;;;;;;5038555;28;20025;-80
2022/04/12 12:17:20;;;;;;;9.68;4.80;;;24.90;31.80;;;;;;5033433;28;20033;-80
2022/04/12 13:21:59;;;;;;;10.85;6.18;;;23.20;35.70;;;;;;5144739;27;20049;-87
2022/04/12 13:24:27;;;;;;;11.52;5.03;;;23.00;34.70;;;;;;5077606;28;20070;-87
2022/04/12 13:26:55;;;;;;;12.57;5.95;;;22.90;34.60;;;;;;5095207;28;20126;-87
2022/04/12 13:29:21;;;;;;;8.98;4.82;;;22.90;35.80;;;;;;5089531;28;20142;-90
2022/04/12 13:31:47;;;;;;;9.88;5.63;;;23.20;34.70;;;;;;5095699;28;20394;-90
2022/04/12 13:34:13;;;;;;;11.27;5.25;;;23.10;34.90;;;;;;5103982;28;20028;-90
2022/04/12 13:36:40;;;;;;;10.77;5.78;;;23.40;34.20;;;;;;5084183;28;20034;-90
2022/04/12 13:39:08;;;;;;;11.93;5.32;;;23.70;34.50;;;;;;5092919;28;20031;-90
2022/04/12 13:41:36;;;;;;;8.68;5.03;;;23.90;33.30;;;;;;5087316;28;20250;-90
2022/04/12 13:44:03;;;;;;;8.80;5.15;;;24.40;33.20;;;;;;5091990;28;20611;-90